Time;durP1;ratioP1;P1;durP2;ratioP2;P2;SDS_P1;SDS_P2;PMS_P1;PMS_P2;Temp;Humidity;BMP_temperature;BMP_pressure;BME280_temperature;BME280_humidity;BME280_pressure;Samples;Min_cycle;Max_cycle;Signal;HPM_P1;HPM_P2
2022/06/18 00:01:33;;;;;;;6.30;5.90;;;;;;;20.94;62.09;101378.84;6042274;23;20412;-75
2022/06/18 00:04:07;;;;;;;6.05;5.60;;;;;;;21.07;62.26;101390.19;6017324;23;20038;-72
2022/06/18 00:06:38;;;;;;;5.55;5.30;;;;;;;21.00;61.64;101366.81;6039030;23;20392;-69
2022/06/18 00:09:05;;;;;;;5.30;5.10;;;;;;;20.81;62.52;101351.56;6021439;23;20200;-71
2022/06/18 00:14:18;;;;;;;6.93;6.60;;;;;;;20.98;62.23;101377.63;6016194;23;20025;-68
2022/06/18 00:16:44;;;;;;;5.38;5.18;;;;;;;20.94;63.05;101378.84;6012558;23;20021;-68
2022/06/18 00:19:11;;;;;;;6.80;6.40;;;;;;;20.72;62.85;101348.66;6016568;23;20022;-67
2022/06/18 00:21:37;;;;;;;5.35;5.15;;;;;;;20.86;62.86;101376.84;6053744;23;20021;-67
2022/06/18 00:24:13;;;;;;;5.80;5.50;;;;;;;20.85;62.34;101379.66;6017036;23;20159;-68
2022/06/18 00:26:39;;;;;;;5.70;5.40;;;;;;;19.96;62.73;101229.81;6017301;23;20178;-68
2022/06/18 00:29:11;;;;;;;5.75;5.45;;;;;;;20.79;63.04;101375.69;6025795;23;20121;-68
2022/06/18 00:31:38;;;;;;;5.70;5.40;;;;;;;20.79;62.79;101375.69;6047227;23;20040;-67
2022/06/18 00:34:04;;;;;;;5.50;5.30;;;;;;;20.76;62.63;101372.44;6049670;23;20034;-72
2022/06/18 00:36:31;;;;;;;5.88;5.57;;;;;;;20.66;62.74;101365.19;6019829;23;20066;-70
2022/06/18 00:38:57;;;;;;;5.78;5.47;;;;;;;20.51;64.11;101345.97;6079598;23;20029;-71
2022/06/18 00:41:26;;;;;;;5.75;5.50;;;;;;;20.59;64.16;101373.88;6040611;23;20366;-72
2022/06/18 00:44:10;;;;;;;5.53;5.22;;;;;;;20.29;64.77;101341.59;6074518;23;20112;-72
2022/06/18 00:46:57;;;;;;;5.40;5.20;;;;;;;20.33;65.91;101369.69;6043554;23;20522;-71
2022/06/18 00:49:42;;;;;;;6.00;5.70;;;;;;;20.25;66.76;101369.47;6042861;23;20055;-73
2022/06/18 00:52:26;;;;;;;5.97;5.68;;;;;;;20.11;66.85;101362.63;6077784;23;20178;-70
2022/06/18 00:55:13;;;;;;;5.22;5.03;;;;;;;19.69;67.16;101300.34;6046012;23;20209;-72
2022/06/18 00:57:49;;;;;;;5.45;5.20;;;;;;;20.04;66.85;101357.91;6029918;23;20010;-73
2022/06/18 01:00:19;;;;;;;6.75;6.45;;;;;;;20.06;67.12;101374.63;6046932;23;20014;-73
2022/06/18 01:02:48;;;;;;;5.90;5.60;;;;;;;19.92;67.06;101344.63;6052155;23;20014;-70
2022/06/18 01:05:23;;;;;;;6.88;6.53;;;;;;;20.05;66.75;101367.59;6041239;23;20154;-73
2022/06/18 01:08:00;;;;;;;5.53;5.30;;;;;;;19.96;66.88;101352.34;6092617;23;20037;-74
2022/06/18 01:10:41;;;;;;;5.80;5.50;;;;;;;20.04;66.54;101372.06;6041865;23;20023;-73
2022/06/18 01:13:11;;;;;;;6.13;5.82;;;;;;;20.03;66.50;101370.38;6078174;23;20014;-73
2022/06/18 01:15:40;;;;;;;5.30;5.10;;;;;;;19.98;65.98;101361.06;6076131;23;20506;-73
2022/06/18 01:18:07;;;;;;;5.85;5.55;;;;;;;20.00;66.24;101367.13;6047229;23;20625;-72
2022/06/18 01:20:43;;;;;;;6.38;6.07;;;;;;;19.89;66.28;101352.03;6073659;23;20049;-72
2022/06/18 01:23:38;;;;;;;6.70;6.40;;;;;;;20.02;65.70;101363.34;6038532;23;20464;-69
2022/06/18 01:26:06;;;;;;;5.30;5.10;;;;;;;20.00;65.77;101351.13;6079404;23;20430;-73
2022/06/18 01:28:32;;;;;;;5.78;5.47;;;;;;;20.00;65.17;101345.81;6041043;23;20400;-72
2022/06/18 01:31:00;;;;;;;5.70;5.40;;;;;;;20.01;65.19;101363.50;6079822;23;20085;-71
2022/06/18 01:33:26;;;;;;;5.72;5.43;;;;;;;19.84;64.83;101325.75;6069102;23;20470;-74
2022/06/18 01:35:54;;;;;;;5.70;5.50;;;;;;;20.02;64.53;101342.03;6074050;23;20197;-72
2022/06/18 01:38:24;;;;;;;7.10;6.70;;;;;;;20.05;64.48;101341.81;6048434;23;20053;-72
2022/06/18 01:40:57;;;;;;;5.88;5.57;;;;;;;19.99;64.12;101334.31;6072891;23;20014;-74
2022/06/18 01:43:25;;;;;;;6.10;5.80;;;;;;;20.01;63.77;101335.03;6070339;23;20018;-73
2022/06/18 01:45:58;;;;;;;5.45;5.25;;;;;;;20.01;63.92;101342.19;6052528;23;20265;-75
2022/06/18 01:48:31;;;;;;;6.25;5.95;;;;;;;19.87;64.11;101314.84;6077317;23;20018;-72
2022/06/18 01:51:00;;;;;;;;;;;;;;;19.98;64.42;101337.94;6053349;23;20019;-73
2022/06/18 01:53:35;;;;;;;6.00;5.70;;;;;;;19.82;64.41;101313.53;6044683;23;20194;-74
2022/06/18 01:56:07;;;;;;;5.30;5.10;;;;;;;19.78;64.91;101312.09;6052587;23;20026;-74
2022/06/18 01:58:39;;;;;;;5.60;5.35;;;;;;;19.75;64.74;101313.19;6035677;23;20010;-73
2022/06/18 02:01:24;;;;;;;5.50;5.22;;;;;;;19.69;65.43;101305.66;6071604;23;20050;-75
2022/06/18 02:03:53;;;;;;;5.20;5.00;;;;;;;19.67;65.53;101312.94;6073063;23;20014;-74
2022/06/18 02:06:20;;;;;;;6.53;6.13;;;;;;;19.76;65.43;101325.53;6042772;23;20345;-73
2022/06/18 02:08:47;;;;;;;5.60;5.40;;;;;;;19.49;65.65;101283.31;6074198;23;20041;-73
2022/06/18 02:11:16;;;;;;;6.57;6.28;;;;;;;19.38;65.72;101268.19;6047975;23;20104;-73
2022/06/18 02:13:48;;;;;;;5.63;5.38;;;;;;;19.70;65.71;101318.88;6073218;23;20029;-73
2022/06/18 02:16:18;;;;;;;6.80;6.50;;;;;;;19.68;66.09;101320.78;6052236;23;20030;-73
2022/06/18 02:18:46;;;;;;;5.25;5.05;;;;;;;19.39;65.98;101277.88;6078401;23;20563;-73
2022/06/18 02:21:14;;;;;;;6.93;6.63;;;;;;;19.64;65.83;101313.16;6048690;23;20026;-71
2022/06/18 02:23:41;;;;;;;5.47;5.28;;;;;;;19.61;66.63;101316.94;6079682;23;20041;-74
2022/06/18 02:26:08;;;;;;;6.07;5.80;;;;;;;19.59;67.02;101312.72;6039688;23;20666;-75
2022/06/18 02:28:39;;;;;;;5.30;5.10;;;;;;;19.44;67.13;101304.13;6081157;23;20022;-73
2022/06/18 02:31:11;;;;;;;5.63;5.32;;;;;;;19.36;67.00;101288.75;6076172;23;20462;-75
2022/06/18 02:34:00;;;;;;;5.45;5.25;;;;;;;19.46;67.38;101300.34;6043222;23;20034;-71
2022/06/18 02:36:33;;;;;;;5.38;5.18;;;;;;;19.36;68.13;101301.22;6075857;23;20051;-67
2022/06/18 02:39:34;;;;;;;5.70;5.40;;;;;;;19.32;67.87;101301.50;6048262;23;20022;-68
2022/06/18 02:42:10;;;;;;;5.50;5.20;;;;;;;19.15;68.35;101288.66;6041844;23;20014;-68
2022/06/18 02:44:42;;;;;;;5.50;5.30;;;;;;;19.12;68.51;101292.44;6045538;23;20026;-68
2022/06/18 02:47:11;;;;;;;5.68;5.22;;;;;;;19.19;68.93;101306.09;6076245;23;20010;-68
2022/06/18 02:49:42;;;;;;;5.50;5.28;;;;;;;19.08;68.70;101312.25;6049721;23;20034;-67
2022/06/18 02:52:08;;;;;;;6.28;5.97;;;;;;;18.93;68.86;101269.06;6080889;23;20017;-68
2022/06/18 02:54:35;;;;;;;5.47;5.28;;;;;;;18.81;69.17;101253.25;6031180;23;20476;-68
2022/06/18 02:57:08;;;;;;;5.40;5.20;;;;;;;19.10;69.09;101310.31;6080100;23;19998;-68
2022/06/18 02:59:35;;;;;;;5.30;5.10;;;;;;;18.88;69.40;101287.22;6053145;23;20089;-68
2022/06/18 03:02:01;;;;;;;5.35;5.15;;;;;;;19.01;69.51;101311.03;6078302;23;20697;-68
2022/06/18 03:04:28;;;;;;;5.60;5.40;;;;;;;18.93;70.41;101318.75;6044138;23;20266;-73
2022/06/18 03:06:54;;;;;;;5.70;5.40;;;;;;;18.84;70.94;101325.66;6079819;23;20030;-73
2022/06/18 03:09:21;;;;;;;6.47;6.18;;;;;;;18.69;70.65;101306.34;6053440;23;20045;-73
2022/06/18 03:14:32;;;;;;;5.40;5.20;;;;;;;18.80;71.11;101329.47;6043368;23;20020;-72
2022/06/18 03:16:59;;;;;;;5.63;5.30;;;;;;;18.81;71.38;101339.16;6079816;23;20083;-72
2022/06/18 03:19:46;;;;;;;5.35;5.15;;;;;;;18.71;71.86;101327.53;6045773;23;20021;-72
2022/06/18 03:22:16;;;;;;;6.47;6.18;;;;;;;18.54;71.83;101303.06;6080165;23;20014;-75
2022/06/18 03:24:43;;;;;;;5.50;5.20;;;;;;;18.71;72.45;101330.19;6076319;23;20310;-72
2022/06/18 03:27:12;;;;;;;7.03;6.63;;;;;;;17.92;72.27;101221.84;6049171;23;20026;-73
2022/06/18 03:29:40;;;;;;;5.38;5.18;;;;;;;18.58;72.27;101308.97;6080256;23;20044;-73
2022/06/18 03:32:07;;;;;;;6.05;5.70;;;;;;;17.73;72.05;101168.38;6043245;23;20085;-67
2022/06/18 03:34:34;;;;;;;5.90;5.60;;;;;;;18.78;72.52;101338.53;6078529;23;20357;-67
2022/06/18 03:37:00;;;;;;;6.05;5.70;;;;;;;18.45;73.49;101284.31;6067969;23;20084;-67
2022/06/18 03:39:27;;;;;;;5.80;5.50;;;;;;;18.81;74.00;101338.34;6041335;23;20511;-67
2022/06/18 03:41:54;;;;;;;6.45;6.15;;;;;;;18.51;73.90;101284.69;6079898;23;20029;-74
2022/06/18 03:44:23;;;;;;;5.30;5.10;;;;;;;18.85;73.25;101322.00;6047001;23;20021;-73
2022/06/18 03:46:50;;;;;;;5.47;5.20;;;;;;;18.98;72.39;101329.03;6075920;23;20030;-72
2022/06/18 03:49:27;;;;;;;6.38;6.07;;;;;;;19.06;72.31;101330.16;6047552;23;20449;-71
2022/06/18 03:51:55;;;;;;;5.80;5.50;;;;;;;18.97;71.39;101298.94;6084261;23;20022;-71
2022/06/18 03:54:22;;;;;;;6.63;6.32;;;;;;;19.19;70.84;101321.22;6041083;23;20034;-67
2022/06/18 03:56:48;;;;;;;5.40;5.20;;;;;;;19.36;70.72;101339.34;6067694;23;20096;-74
2022/06/18 03:59:15;;;;;;;6.95;6.65;;;;;;;18.97;70.42;101267.03;6069605;23;20433;-67
2022/06/18 04:01:42;;;;;;;5.25;5.05;;;;;;;19.51;70.20;101332.78;6096540;23;20687;-67
2022/06/18 04:04:11;;;;;;;6.72;6.43;;;;;;;19.60;70.16;101331.19;6054727;23;20021;-67
2022/06/18 04:06:39;;;;;;;5.63;5.32;;;;;;;19.71;69.48;101338.38;6083941;23;20444;-68
2022/06/18 04:09:06;;;;;;;5.82;5.53;;;;;;;19.84;68.24;101330.22;6052716;23;20025;-70
2022/06/18 04:11:33;;;;;;;5.65;5.35;;;;;;;19.90;67.81;101327.06;6083208;23;20114;-68
2022/06/18 04:13:59;;;;;;;5.82;5.53;;;;;;;19.95;67.86;101326.72;6055401;23;20356;-71
2022/06/18 04:16:26;;;;;;;5.53;5.28;;;;;;;19.89;67.85;101331.56;6084120;23;20424;-73
2022/06/18 04:18:52;;;;;;;5.30;5.10;;;;;;;20.06;68.10;101316.84;6054087;23;20388;-68
2022/06/18 04:21:19;;;;;;;5.68;5.38;;;;;;;20.42;67.09;101329.91;6085275;23;20014;-68
2022/06/18 04:23:45;;;;;;;5.90;5.50;;;;;;;20.70;66.35;101339.13;6051900;23;20034;-74
2022/06/18 04:26:12;;;;;;;6.43;5.93;;;;;;;20.97;65.02;101332.38;6074284;23;20029;-67
2022/06/18 04:28:42;;;;;;;5.82;5.53;;;;;;;21.22;64.09;101328.44;6054812;23;20085;-73
2022/06/18 04:31:08;;;;;;;6.35;6.05;;;;;;;21.30;63.52;101320.59;6076309;23;20489;-68
2022/06/18 04:33:35;;;;;;;5.70;5.40;;;;;;;20.48;61.79;101180.06;6075495;23;20123;-68
2022/06/18 04:36:02;;;;;;;5.85;5.55;;;;;;;21.41;61.73;101328.53;6077751;23;20092;-68
2022/06/18 04:38:29;;;;;;;5.70;5.40;;;;;;;21.30;61.71;101300.09;6050660;23;20659;-68
2022/06/18 04:40:55;;;;;;;5.60;5.38;;;;;;;21.42;61.79;101300.81;6081419;23;20029;-68
2022/06/18 04:43:24;;;;;;;6.78;6.47;;;;;;;21.90;60.83;101301.94;6089091;23;20014;-68
2022/06/18 04:45:52;;;;;;;6.10;5.80;;;;;;;21.78;59.31;101261.16;6017139;23;20030;-70
2022/06/18 04:48:18;;;;;;;7.03;6.72;;;;;;;22.34;58.81;101315.78;6064742;23;20018;-73
2022/06/18 04:50:44;;;;;;;5.80;5.50;;;;;;;22.28;58.72;101314.50;6076046;23;20029;-68
2022/06/18 04:53:11;;;;;;;6.70;6.35;;;;;;;21.64;58.34;101189.44;6048139;23;20377;-68
2022/06/18 04:55:37;;;;;;;5.70;5.30;;;;;;;22.64;58.08;101312.06;6055335;23;20553;-68
2022/06/18 04:58:04;;;;;;;5.80;5.50;;;;;;;22.86;56.97;101315.41;6049355;23;20078;-74
2022/06/18 05:00:31;;;;;;;5.90;5.60;;;;;;;22.09;55.88;101162.09;6076640;23;20018;-74
2022/06/18 05:02:57;;;;;;;5.82;5.53;;;;;;;23.20;55.69;101322.94;6049644;23;20327;-72
2022/06/18 05:05:26;;;;;;;6.05;5.75;;;;;;;23.22;55.96;101310.25;6072982;23;20382;-72
2022/06/18 05:07:53;;;;;;;5.82;5.53;;;;;;;23.45;54.99;101308.88;6050939;23;20015;-73
2022/06/18 05:10:21;;;;;;;7.00;6.60;;;;;;;23.79;54.95;101307.41;6046497;23;20066;-72
2022/06/18 05:12:48;;;;;;;6.20;5.90;;;;;;;24.09;54.02;101287.41;6076992;23;20034;-73
2022/06/18 05:15:14;;;;;;;6.88;6.57;;;;;;;24.27;53.51;101309.69;6076542;23;20372;-69
2022/06/18 05:17:46;;;;;;;6.00;5.70;;;;;;;24.63;52.30;101304.28;6051250;23;20591;-69
2022/06/18 05:20:20;;;;;;;6.65;6.35;;;;;;;25.17;50.90;101314.84;6070915;23;20025;-69
2022/06/18 05:22:46;;;;;;;6.40;5.82;;;;;;;25.08;50.56;101278.22;6052728;23;20452;-69
2022/06/18 05:25:14;;;;;;;6.55;6.25;;;;;;;25.39;49.15;101301.88;6071106;23;20010;-69
2022/06/18 05:27:41;;;;;;;5.72;5.47;;;;;;;25.72;48.85;101291.22;6046140;23;20034;-69
2022/06/18 05:30:13;;;;;;;6.38;6.07;;;;;;;26.07;48.32;101306.25;6075504;23;20039;-69
2022/06/18 05:32:41;;;;;;;6.35;6.05;;;;;;;26.28;48.50;101303.09;6046353;23;20034;-73
2022/06/18 05:35:08;;;;;;;6.65;6.32;;;;;;;26.33;48.29;101298.03;6079108;23;20081;-74
2022/06/18 05:37:35;;;;;;;6.10;5.80;;;;;;;26.10;47.55;101241.38;6068894;23;20026;-69
2022/06/18 05:40:03;;;;;;;6.00;5.70;;;;;;;26.82;47.32;101310.59;6040953;23;20017;-73
2022/06/18 05:42:30;;;;;;;6.07;5.78;;;;;;;26.86;46.34;101306.53;6074550;23;20474;-73
2022/06/18 05:44:56;;;;;;;6.10;5.80;;;;;;;27.01;46.31;101302.13;6051058;23;20101;-67
2022/06/18 05:47:26;;;;;;;6.72;6.43;;;;;;;27.03;45.38;101305.50;6051504;23;20010;-72
2022/06/18 05:49:53;;;;;;;5.72;5.43;;;;;;;27.41;45.38;101321.06;6045007;23;20135;-73
2022/06/18 05:52:21;;;;;;;8.18;7.70;;;;;;;27.06;44.93;101289.00;6075006;23;20110;-68
2022/06/18 05:54:51;;;;;;;5.65;5.35;;;;;;;27.21;44.76;101305.25;6051050;23;20096;-69
2022/06/18 05:57:19;;;;;;;7.35;6.95;;;;;;;27.64;44.77;101308.47;6078216;23;20444;-69
2022/06/18 05:59:46;;;;;;;6.00;5.70;;;;;;;27.53;43.87;101306.16;6051663;23;20139;-73
2022/06/18 06:02:15;;;;;;;7.32;6.95;;;;;;;27.36;44.04;101262.28;6076429;23;20091;-73
2022/06/18 06:04:42;;;;;;;6.13;5.82;;;;;;;27.67;43.67;101296.47;6065017;23;20077;-73
2022/06/18 06:07:13;;;;;;;6.35;6.05;;;;;;;27.51;44.12;101307.34;6041625;23;20018;-70
2022/06/18 06:12:26;;;;;;;6.25;5.95;;;;;;;27.57;43.70;101298.56;6045556;23;20111;-68
2022/06/18 06:14:53;;;;;;;5.78;5.47;;;;;;;27.18;44.53;101293.97;6062355;23;20344;-71
2022/06/18 06:17:22;;;;;;;7.38;6.97;;;;;;;27.56;44.40;101272.59;6049338;23;20073;-71
2022/06/18 06:19:49;;;;;;;5.88;5.57;;;;;;;28.28;43.02;101299.25;6066866;23;20283;-68
2022/06/18 06:22:15;;;;;;;7.20;6.85;;;;;;;28.54;42.21;101296.16;6044965;23;20051;-72
2022/06/18 06:24:42;;;;;;;6.35;5.95;;;;;;;29.08;41.67;101295.06;6078160;23;20050;-73
2022/06/18 06:27:10;;;;;;;6.00;5.70;;;;;;;28.94;41.60;101302.16;6047460;23;20431;-69
2022/06/18 06:29:37;;;;;;;6.07;5.78;;;;;;;29.16;41.86;101305.81;6079621;23;20088;-68
2022/06/18 06:32:04;;;;;;;6.00;5.70;;;;;;;29.13;40.97;101294.56;6036983;23;20011;-67
2022/06/18 06:34:30;;;;;;;6.40;6.00;;;;;;;28.48;41.99;101302.28;6074044;23;20048;-73
2022/06/18 06:36:57;;;;;;;6.10;5.80;;;;;;;28.20;42.61;101304.72;6071063;23;20015;-73
2022/06/18 06:39:23;;;;;;;7.10;6.70;;;;;;;27.73;43.34;101297.63;6055101;23;20022;-70
2022/06/18 06:41:49;;;;;;;6.05;5.75;;;;;;;27.26;45.12;101280.50;6076144;23;20049;-73
2022/06/18 06:44:16;;;;;;;7.05;6.75;;;;;;;27.43;45.58;101303.69;6083029;23;20591;-72
2022/06/18 06:46:42;;;;;;;6.00;5.70;;;;;;;27.38;45.21;101291.72;6079236;23;20014;-74
2022/06/18 06:49:11;;;;;;;6.00;5.70;;;;;;;27.59;44.87;101275.78;6083874;23;20152;-74
2022/06/18 06:51:38;;;;;;;5.88;5.57;;;;;;;27.95;44.29;101293.28;6051527;23;20029;-70
2022/06/18 06:54:07;;;;;;;5.72;5.43;;;;;;;27.52;45.35;101296.38;6083539;23;20026;-69
2022/06/18 06:59:19;;;;;;;6.97;6.57;;;;;;;27.18;46.19;101267.03;6073191;23;20404;-73
2022/06/18 07:01:46;;;;;;;5.80;5.50;;;;;;;26.93;45.70;101240.22;6055614;23;20097;-69
2022/06/18 07:04:13;;;;;;;6.80;6.50;;;;;;;27.45;45.82;101298.94;6046892;23;20026;-70
2022/06/18 07:06:40;;;;;;;6.93;6.53;;;;;;;27.56;45.16;101251.03;6058571;23;20141;-69
2022/06/18 07:09:08;;;;;;;6.18;5.85;;;;;;;27.90;44.58;101292.97;6027258;23;20528;-75
2022/06/18 07:11:37;;;;;;;6.32;5.78;;;;;;;28.03;42.77;101294.06;6081791;23;20033;-75
2022/06/18 07:14:05;;;;;;;5.72;5.43;;;;;;;28.30;42.85;101272.06;6049152;23;20102;-74
2022/06/18 07:16:32;;;;;;;6.07;5.78;;;;;;;28.45;42.76;101275.66;6050869;23;20796;-71
2022/06/18 07:18:59;;;;;;;5.65;5.40;;;;;;;28.52;43.76;101270.38;6051426;23;20546;-74
2022/06/18 07:21:26;;;;;;;6.45;6.15;;;;;;;28.78;43.54;101286.97;6065554;23;20034;-73
2022/06/18 07:23:52;;;;;;;5.78;5.47;;;;;;;28.95;42.92;101265.19;6050404;23;20694;-75
2022/06/18 07:26:22;;;;;;;7.00;6.60;;;;;;;29.13;42.88;101290.00;6043101;23;20020;-74
2022/06/18 07:28:48;;;;;;;5.40;5.20;;;;;;;29.31;41.70;101292.28;6050222;23;20100;-75
2022/06/18 07:31:27;;;;;;;7.00;6.70;;;;;;;28.95;41.91;101281.41;6076682;23;20494;-74
2022/06/18 07:33:56;;;;;;;6.00;5.70;;;;;;;28.96;42.77;101285.75;6048239;23;20038;-76
2022/06/18 07:36:23;;;;;;;6.40;6.05;;;;;;;28.40;42.16;101162.78;6078324;23;20208;-75
2022/06/18 07:38:50;;;;;;;5.70;5.40;;;;;;;29.13;41.32;101283.75;6051912;23;20010;-73
2022/06/18 07:41:19;;;;;;;6.85;6.55;;;;;;;29.10;41.09;101249.78;6069473;23;20025;-71
2022/06/18 07:43:52;;;;;;;5.82;5.53;;;;;;;28.96;42.04;101266.84;6052229;23;20017;-76
2022/06/18 07:46:19;;;;;;;7.97;7.53;;;;;;;29.27;41.23;101291.00;6046969;23;20361;-73
2022/06/18 07:48:45;;;;;;;5.60;5.40;;;;;;;29.18;40.72;101257.81;6033045;23;20429;-70
2022/06/18 07:51:12;;;;;;;7.78;7.38;;;;;;;29.50;41.09;101287.31;6043259;23;20023;-70
2022/06/18 07:53:39;;;;;;;6.28;5.97;;;;;;;29.15;41.71;101260.06;6082013;23;20029;-73
2022/06/18 07:56:07;;;;;;;5.90;5.60;;;;;;;28.33;43.56;101283.34;6045215;23;20034;-75
2022/06/18 07:58:35;;;;;;;6.18;5.88;;;;;;;28.60;44.09;101290.03;6076432;23;20390;-74
2022/06/18 08:01:03;;;;;;;5.90;5.60;;;;;;;29.02;42.34;101276.91;6058036;23;20238;-76
2022/06/18 08:03:29;;;;;;;6.03;5.72;;;;;;;29.29;42.83;101271.84;6048495;23;20002;-74
2022/06/18 08:05:56;;;;;;;6.05;5.75;;;;;;;29.61;41.31;101248.94;6047683;23;20285;-68
2022/06/18 08:08:23;;;;;;;8.15;7.75;;;;;;;30.00;41.12;101274.72;6041459;23;20242;-71
2022/06/18 08:11:07;;;;;;;6.00;5.70;;;;;;;29.74;40.09;101235.56;6081181;23;20071;-73
2022/06/18 08:13:34;;;;;;;5.85;5.55;;;;;;;29.93;40.95;101246.75;6054108;23;20225;-72
2022/06/18 08:16:01;;;;;;;6.10;5.80;;;;;;;29.34;41.17;101208.09;6084095;23;20088;-74
2022/06/18 08:18:27;;;;;;;6.10;5.80;;;;;;;29.90;40.75;101252.56;6064375;23;20077;-75
2022/06/18 08:21:05;;;;;;;5.93;5.63;;;;;;;30.29;40.82;101256.63;6066785;23;20019;-70
2022/06/18 08:23:32;;;;;;;6.10;5.80;;;;;;;30.38;40.51;101221.13;6071922;23;20554;-75
2022/06/18 08:25:58;;;;;;;6.25;5.95;;;;;;;30.66;40.45;101238.38;6050797;23;20034;-73
2022/06/18 08:28:25;;;;;;;6.63;6.28;;;;;;;30.47;37.07;101246.19;6077461;23;20041;-72
2022/06/18 08:30:51;;;;;;;7.55;7.15;;;;;;;30.15;37.76;101215.09;6064521;23;20058;-72
2022/06/18 08:33:18;;;;;;;6.00;5.70;;;;;;;30.35;37.73;101242.34;6047580;23;20020;-71
2022/06/18 08:35:44;;;;;;;7.57;7.18;;;;;;;30.07;37.81;101212.53;6075147;23;20112;-72
2022/06/18 08:38:13;;;;;;;5.93;5.63;;;;;;;29.71;39.09;101197.19;6070424;23;20096;-75
2022/06/18 08:40:45;;;;;;;6.80;6.45;;;;;;;30.22;37.86;101238.47;6042185;23;20504;-73
2022/06/18 08:43:20;;;;;;;6.07;5.78;;;;;;;30.16;39.13;101241.97;6052979;23;20142;-71
2022/06/18 08:45:54;;;;;;;7.47;7.07;;;;;;;29.87;37.38;101237.56;6045992;23;20022;-76
2022/06/18 08:49:04;;;;;;;6.20;5.90;;;;;;;29.08;39.53;101089.66;6067422;23;20009;-72
2022/06/18 08:52:04;;;;;;;5.97;5.57;;;;;;;30.65;38.10;101231.28;5995593;23;20479;-70
2022/06/18 08:54:49;;;;;;;5.80;5.50;;;;;;;30.80;37.86;101221.16;6076025;23;20021;-70
2022/06/18 08:57:37;;;;;;;6.05;5.75;;;;;;;30.09;36.56;101085.94;6070694;23;20112;-72
2022/06/18 09:00:33;;;;;;;6.57;6.18;;;;;;;31.19;37.68;101216.94;6052791;23;20105;-74
2022/06/18 09:03:09;;;;;;;6.28;5.97;;;;;;;30.88;38.19;101212.88;6074798;23;20489;-72
2022/06/18 09:06:00;;;;;;;7.40;7.00;;;;;;;30.95;36.96;101196.63;6046830;23;20480;-72
2022/06/18 09:09:02;;;;;;;5.88;5.57;;;;;;;30.83;37.88;101209.91;6053005;23;20183;-74
2022/06/18 09:11:44;;;;;;;6.40;6.00;;;;;;;31.28;36.51;101213.03;6062111;23;20037;-71
2022/06/18 09:14:16;;;;;;;;;;;;;;;31.31;37.88;101201.78;6038597;23;20015;-75
2022/06/18 09:16:49;;;;;;;7.25;6.85;;;;;;;31.34;36.02;101217.63;6045464;23;20348;-73
2022/06/18 09:19:19;;;;;;;6.00;5.70;;;;;;;31.06;36.28;101185.22;6055924;23;20030;-69
2022/06/18 09:21:55;;;;;;;7.43;7.03;;;;;;;31.09;36.71;101205.66;6075792;23;20069;-72
2022/06/18 09:24:35;;;;;;;6.20;5.90;;;;;;;31.38;37.41;101205.31;6083566;23;20083;-69
2022/06/18 09:27:05;;;;;;;6.40;6.00;;;;;;;31.62;35.85;101196.84;6052142;23;20021;-69
2022/06/18 09:29:44;;;;;;;5.85;5.53;;;;;;;32.02;35.82;101183.31;6059452;23;20072;-68
2022/06/18 09:32:17;;;;;;;6.07;5.75;;;;;;;32.12;34.77;101181.84;6057021;23;20018;-68
2022/06/18 09:35:14;;;;;;;7.28;6.88;;;;;;;32.02;34.89;101197.72;6051987;23;20030;-69
2022/06/18 09:38:03;;;;;;;7.15;6.75;;;;;;;32.44;34.90;101197.44;6052986;23;20022;-68
2022/06/18 09:40:33;;;;;;;6.00;5.60;;;;;;;32.00;35.25;101188.94;6081803;23;20030;-73
2022/06/18 09:43:25;;;;;;;6.13;5.82;;;;;;;32.27;33.92;101169.88;6051326;23;20032;-70
2022/06/18 09:45:54;;;;;;;;;;;;;;;32.39;33.95;101187.19;6042525;23;20392;-69
2022/06/18 09:48:20;;;;;;;5.70;5.40;;;;;;;32.37;34.40;101157.53;6084373;23;20081;-69
2022/06/18 09:50:54;;;;;;;7.07;6.68;;;;;;;32.67;34.04;101177.97;6083087;23;20029;-73
2022/06/18 09:53:25;;;;;;;6.28;5.78;;;;;;;32.67;34.25;101177.97;6045182;23;20015;-69
2022/06/18 09:56:12;;;;;;;7.05;6.75;;;;;;;32.96;33.86;101184.75;6081434;23;20038;-67
2022/06/18 09:58:46;;;;;;;7.47;7.00;;;;;;;33.24;33.95;101175.38;6047649;23;20096;-69
2022/06/18 10:01:18;;;;;;;5.88;5.55;;;;;;;33.61;33.11;101184.56;6052202;23;20271;-70
2022/06/18 10:06:53;;;;;;;6.38;5.97;;;;;;;33.66;33.05;101192.94;6075770;23;19929;-70
2022/06/18 10:09:42;;;;;;;6.03;5.72;;;;;;;33.72;31.06;101148.50;6057449;23;20040;-69
2022/06/18 10:12:27;;;;;;;6.38;6.00;;;;;;;33.81;32.03;101184.44;6080313;23;20368;-70
2022/06/18 10:14:59;;;;;;;7.07;6.78;;;;;;;33.07;31.79;101053.50;6049356;23;20392;-70
2022/06/18 10:17:49;;;;;;;6.15;5.80;;;;;;;33.70;31.78;101157.91;6079865;23;20081;-70
2022/06/18 10:20:31;;;;;;;6.20;5.80;;;;;;;34.12;31.27;101177.22;6025565;23;20030;-70
2022/06/18 10:23:33;;;;;;;6.72;6.32;;;;;;;32.99;31.58;101056.50;6073859;23;20271;-70
2022/06/18 10:26:20;;;;;;;5.80;5.50;;;;;;;34.04;32.52;101162.03;6055224;23;20085;-68
2022/06/18 10:28:49;;;;;;;7.45;7.05;;;;;;;34.38;31.26;101159.81;6067226;23;20477;-73
2022/06/18 10:31:21;;;;;;;6.45;6.13;;;;;;;34.50;30.87;101136.19;6050139;23;20018;-71
2022/06/18 10:34:13;;;;;;;8.05;7.55;;;;;;;34.11;30.37;101145.59;6084852;23;20543;-68
2022/06/18 10:36:52;;;;;;;;;;;;;;;34.30;31.10;101152.78;6051744;23;20014;-68
2022/06/18 10:39:52;;;;;;;6.30;5.90;;;;;;;34.16;29.96;101153.97;6074458;23;19981;-70
2022/06/18 10:42:46;;;;;;;6.57;6.28;;;;;;;33.93;30.68;101160.03;6051168;23;20037;-70
2022/06/18 10:45:40;;;;;;;6.50;5.88;;;;;;;34.39;30.86;101150.56;6087101;23;20403;-75
2022/06/18 10:48:22;;;;;;;6.40;5.90;;;;;;;34.44;30.31;101147.16;6012736;23;20053;-70
2022/06/18 10:50:52;;;;;;;7.93;7.43;;;;;;;34.46;30.80;101143.16;6054738;23;20105;-70
2022/06/18 10:53:22;;;;;;;6.03;5.72;;;;;;;34.54;30.39;101145.56;6052165;23;20014;-69
2022/06/18 10:56:02;;;;;;;7.80;7.40;;;;;;;34.64;30.47;101142.31;6078886;23;20030;-73
2022/06/18 10:58:30;;;;;;;6.47;5.97;;;;;;;34.60;30.39;101137.50;6054647;23;20078;-69
2022/06/18 11:01:01;;;;;;;6.55;6.25;;;;;;;34.78;30.48;101134.78;6049371;23;20101;-73
2022/06/18 11:03:33;;;;;;;6.22;5.85;;;;;;;35.00;28.99;101147.91;6085621;23;20030;-69
2022/06/18 11:06:08;;;;;;;5.75;5.45;;;;;;;35.03;29.66;101133.84;6060649;23;20026;-75
2022/06/18 11:08:36;;;;;;;6.18;5.78;;;;;;;34.94;30.11;101109.63;6048206;23;20499;-77
2022/06/18 11:11:08;;;;;;;6.50;6.10;;;;;;;35.17;29.68;101126.31;6059758;23;20037;-75
2022/06/18 11:13:44;;;;;;;6.15;5.75;;;;;;;35.38;29.59;101125.75;6045233;23;20110;-68
2022/06/18 11:16:18;;;;;;;6.28;5.97;;;;;;;35.14;29.60;101124.84;6056512;23;20014;-69
2022/06/18 11:18:54;;;;;;;6.95;6.40;;;;;;;35.02;29.71;101113.06;6053497;23;20511;-68
2022/06/18 11:21:34;;;;;;;6.78;6.38;;;;;;;35.19;29.88;101096.91;6074561;23;20028;-67
2022/06/18 11:24:03;;;;;;;6.13;5.80;;;;;;;35.38;29.74;101090.25;6055957;23;20073;-70
2022/06/18 11:26:49;;;;;;;6.15;5.85;;;;;;;34.91;28.39;101125.59;6055501;23;20101;-69
2022/06/18 11:29:56;;;;;;;6.45;6.15;;;;;;;34.98;30.22;101090.88;6069984;23;20935;-75
2022/06/18 11:32:37;;;;;;;6.72;6.22;;;;;;;35.01;28.57;101101.31;6052508;23;20012;-73
2022/06/18 11:35:18;;;;;;;6.82;6.43;;;;;;;35.32;30.09;101104.84;6052291;23;20027;-68
2022/06/18 11:38:01;;;;;;;7.78;7.32;;;;;;;35.30;29.63;101094.19;6071186;23;20029;-66
2022/06/18 11:40:29;;;;;;;6.55;6.05;;;;;;;35.71;28.67;101103.38;6026412;23;20085;-74
2022/06/18 11:43:06;;;;;;;7.60;7.03;;;;;;;35.34;28.50;101100.84;6073972;23;20029;-68
2022/06/18 11:45:45;;;;;;;6.25;5.85;;;;;;;33.16;29.66;100878.16;6080686;23;20029;-67
2022/06/18 11:48:47;;;;;;;6.13;5.82;;;;;;;34.89;30.25;101090.38;6072265;23;20309;-75
2022/06/18 11:51:34;;;;;;;5.95;5.53;;;;;;;35.43;28.13;101097.78;5969485;23;20015;-73
2022/06/18 11:54:18;;;;;;;6.47;6.07;;;;;;;35.47;28.23;101090.78;6077546;23;20462;-69
2022/06/18 11:56:53;;;;;;;7.63;7.22;;;;;;;35.64;27.88;101083.50;6076210;23;20014;-69
2022/06/18 11:59:41;;;;;;;5.97;5.68;;;;;;;35.16;29.22;100945.41;6047872;23;20034;-69
2022/06/18 12:02:23;;;;;;;6.63;6.25;;;;;;;35.27;28.34;100960.94;6073756;23;20464;-69
2022/06/18 12:05:04;;;;;;;8.15;7.65;;;;;;;35.77;28.42;101059.81;6071390;23;20126;-67